Time;durP1;ratioP1;P1;durP2;ratioP2;P2;SDS_P1;SDS_P2;PMS_P1;PMS_P2;Temp;Humidity;BMP_temperature;BMP_pressure;BME280_temperature;BME280_humidity;BME280_pressure;Samples;Min_cycle;Max_cycle;Signal;HPM_P1;HPM_P2
2021/05/24 00:02:11;;;;;;;4.07;1.13;;;11.40;61.40;;;;;;5052973;28;20025;-35
2021/05/24 00:04:37;;;;;;;2.60;1.00;;;11.40;61.60;;;;;;5053127;28;20021;-35
2021/05/24 00:07:03;;;;;;;3.70;1.73;;;11.30;62.30;;;;;;5052633;28;20043;-35
2021/05/24 00:09:29;;;;;;;1.80;1.05;;;11.50;61.00;;;;;;5055648;28;20100;-35
2021/05/24 00:11:55;;;;;;;3.58;1.38;;;11.50;61.10;;;;;;5056637;28;20104;-35
2021/05/24 00:14:21;;;;;;;2.75;1.17;;;11.50;61.60;;;;;;5056213;28;20396;-35
2021/05/24 00:16:47;;;;;;;2.10;1.10;;;11.40;62.20;;;;;;5056680;28;20025;-35
2021/05/24 00:19:13;;;;;;;2.50;0.90;;;11.40;62.10;;;;;;5056103;28;20150;-35
2021/05/24 00:21:39;;;;;;;1.80;0.90;;;11.40;61.80;;;;;;5056256;28;20115;-35
2021/05/24 00:24:05;;;;;;;1.75;0.75;;;11.40;62.10;;;;;;5056164;28;20423;-35
2021/05/24 00:26:31;;;;;;;2.03;0.70;;;11.40;62.20;;;;;;5056764;28;20481;-35
2021/05/24 00:28:56;;;;;;;3.00;1.20;;;11.50;62.20;;;;;;5056398;28;20041;-35
2021/05/24 00:31:22;;;;;;;5.88;1.98;;;11.50;62.20;;;;;;5056261;28;20448;-35
2021/05/24 00:33:48;;;;;;;2.83;1.20;;;11.40;62.50;;;;;;5056077;28;20031;-35
2021/05/24 00:36:14;;;;;;;2.10;0.90;;;11.40;62.60;;;;;;5056112;28;20453;-35
2021/05/24 00:38:39;;;;;;;0.50;0.50;;;11.50;62.50;;;;;;5055682;28;20039;-35
2021/05/24 00:41:05;;;;;;;2.50;0.70;;;11.50;62.50;;;;;;5055695;28;20033;-35
2021/05/24 00:43:31;;;;;;;1.38;0.75;;;11.50;62.60;;;;;;5055702;28;20032;-35
2021/05/24 00:45:57;;;;;;;3.95;1.13;;;11.50;62.50;;;;;;5056134;28;20024;-35
2021/05/24 00:48:22;;;;;;;2.30;0.80;;;11.50;62.80;;;;;;5056284;28;20032;-35
2021/05/24 00:50:48;;;;;;;3.08;1.17;;;11.50;62.90;;;;;;5055774;28;20079;-35
2021/05/24 00:53:14;;;;;;;4.03;0.80;;;11.70;62.90;;;;;;5056040;28;20043;-35
2021/05/24 00:55:39;;;;;;;1.98;0.98;;;11.60;63.00;;;;;;5055987;28;20473;-35
2021/05/24 00:58:06;;;;;;;3.08;0.93;;;11.60;63.20;;;;;;5056400;28;20130;-35
2021/05/24 01:00:36;;;;;;;3.58;0.80;;;11.50;63.80;;;;;;5054483;28;20469;-35
2021/05/24 01:03:04;;;;;;;3.55;0.90;;;11.50;63.90;;;;;;5055437;28;20021;-35
2021/05/24 01:05:29;;;;;;;2.90;0.55;;;11.70;63.40;;;;;;5055682;28;20492;-35
2021/05/24 01:07:55;;;;;;;2.17;0.80;;;11.60;64.10;;;;;;5056094;28;20025;-35
2021/05/24 01:10:21;;;;;;;4.63;0.90;;;11.70;64.10;;;;;;5055540;28;20032;-35
2021/05/24 01:12:47;;;;;;;1.90;0.77;;;11.70;64.10;;;;;;5055588;28;20064;-35
2021/05/24 01:15:13;;;;;;;3.05;2.13;;;11.70;64.10;;;;;;5055117;28;20107;-35
2021/05/24 01:17:39;;;;;;;3.83;0.98;;;11.70;64.40;;;;;;5055070;28;20560;-35
2021/05/24 01:20:05;;;;;;;2.05;0.70;;;11.80;64.10;;;;;;5054764;28;20052;-35
2021/05/24 01:22:33;;;;;;;2.38;2.00;;;11.90;64.00;;;;;;5055232;28;20388;-35
2021/05/24 01:25:01;;;;;;;3.35;1.00;;;11.80;64.20;;;;;;5055230;28;20085;-36
2021/05/24 01:27:26;;;;;;;2.20;0.90;;;11.80;64.40;;;;;;5054860;28;20105;-35
2021/05/24 01:29:52;;;;;;;1.08;0.80;;;12.00;64.30;;;;;;5055682;28;20100;-35
2021/05/24 01:32:18;;;;;;;0.88;0.70;;;11.90;64.30;;;;;;5055596;28;20098;-35
2021/05/24 01:34:44;;;;;;;4.03;0.98;;;12.00;64.40;;;;;;5054116;28;20029;-35
2021/05/24 01:37:09;;;;;;;3.90;1.50;;;11.90;64.70;;;;;;5055087;28;20100;-35
2021/05/24 01:39:35;;;;;;;3.15;1.02;;;12.00;64.50;;;;;;5054162;28;20053;-35
2021/05/24 01:42:01;;;;;;;2.17;0.90;;;12.00;65.00;;;;;;5055086;28;20376;-35
2021/05/24 01:44:38;;;;;;;1.23;0.80;;;12.10;64.70;;;;;;5055133;28;20027;-35
2021/05/24 01:47:05;;;;;;;1.58;0.75;;;12.10;64.90;;;;;;5054038;28;20403;-35
2021/05/24 01:49:32;;;;;;;1.02;0.63;;;12.20;64.20;;;;;;5053677;28;20052;-35
2021/05/24 01:51:58;;;;;;;1.95;0.70;;;12.20;64.50;;;;;;5054382;28;20045;-35
2021/05/24 01:54:24;;;;;;;5.32;1.33;;;12.20;64.80;;;;;;5054782;28;20432;-36
2021/05/24 01:56:50;;;;;;;2.10;1.00;;;12.30;64.20;;;;;;5054756;28;20033;-35
2021/05/24 01:59:16;;;;;;;3.53;1.23;;;12.40;64.20;;;;;;5054753;28;20028;-36
2021/05/24 02:01:41;;;;;;;3.67;0.90;;;12.40;64.10;;;;;;5054651;28;20021;-35
2021/05/24 02:04:07;;;;;;;4.68;1.17;;;12.30;64.20;;;;;;5054354;28;20037;-36
2021/05/24 02:06:34;;;;;;;3.55;1.42;;;12.30;64.70;;;;;;5053396;28;20028;-36
2021/05/24 02:08:59;;;;;;;3.63;0.73;;;12.40;64.40;;;;;;5054584;28;20377;-35
2021/05/24 02:11:26;;;;;;;5.38;1.42;;;12.40;64.20;;;;;;5054416;28;20036;-36
2021/05/24 02:13:52;;;;;;;2.63;2.08;;;12.40;64.60;;;;;;5054558;28;20358;-36
2021/05/24 02:16:26;;;;;;;1.75;0.80;;;12.40;64.80;;;;;;5054563;28;20582;-35
2021/05/24 02:18:52;;;;;;;4.07;0.93;;;12.30;65.30;;;;;;5054606;28;20021;-35
2021/05/24 02:21:18;;;;;;;3.50;0.93;;;12.30;65.50;;;;;;5054482;28;20056;-35
2021/05/24 02:23:43;;;;;;;6.07;1.00;;;12.30;65.70;;;;;;5054315;28;20056;-36
2021/05/24 02:26:09;;;;;;;1.52;1.02;;;12.30;65.60;;;;;;5054168;28;20044;-36
2021/05/24 02:28:35;;;;;;;3.53;1.00;;;12.20;66.10;;;;;;5054111;28;20043;-36
2021/05/24 02:31:00;;;;;;;3.60;0.70;;;12.30;65.80;;;;;;5053931;28;20021;-35
2021/05/24 02:33:26;;;;;;;2.63;0.73;;;12.30;65.90;;;;;;5054150;28;20347;-35
2021/05/24 02:35:54;;;;;;;0.75;0.60;;;12.30;65.90;;;;;;5054091;28;20029;-35
2021/05/24 02:38:19;;;;;;;1.92;0.60;;;12.30;65.70;;;;;;5054056;28;20036;-36
2021/05/24 02:40:45;;;;;;;1.65;0.60;;;12.30;65.60;;;;;;5053790;28;20112;-35
2021/05/24 02:43:11;;;;;;;2.30;0.90;;;12.30;65.60;;;;;;5053688;28;20033;-35
2021/05/24 02:45:36;;;;;;;1.83;0.73;;;12.30;65.50;;;;;;5053833;28;20469;-36
2021/05/24 02:48:02;;;;;;;2.10;0.95;;;12.30;65.50;;;;;;5053652;28;20032;-36
2021/05/24 02:50:29;;;;;;;0.63;0.60;;;12.30;65.60;;;;;;5053994;28;20044;-36
2021/05/24 02:52:54;;;;;;;1.25;0.57;;;12.40;65.30;;;;;;5053330;28;20045;-35
2021/05/24 02:55:20;;;;;;;2.92;1.05;;;12.40;65.30;;;;;;5053962;28;20031;-35
2021/05/24 02:57:46;;;;;;;4.72;1.63;;;12.30;65.50;;;;;;5053519;28;20025;-34
2021/05/24 03:00:13;;;;;;;2.53;0.70;;;12.30;65.50;;;;;;5053931;28;20086;-34
2021/05/24 03:02:49;;;;;;;1.35;0.60;;;12.40;64.70;;;;;;5053755;28;20505;-34
2021/05/24 03:05:16;;;;;;;0.98;0.70;;;12.50;64.40;;;;;;5053590;28;20108;-34
2021/05/24 03:07:42;;;;;;;1.33;0.75;;;12.50;64.50;;;;;;5053667;28;20069;-35
2021/05/24 03:10:08;;;;;;;3.38;0.80;;;12.50;64.60;;;;;;5053595;28;20469;-34
2021/05/24 03:12:34;;;;;;;1.77;0.90;;;12.40;64.80;;;;;;5053295;28;20056;-34
2021/05/24 03:15:00;;;;;;;0.52;0.50;;;12.40;64.70;;;;;;5053629;28;20025;-34
2021/05/24 03:17:26;;;;;;;1.45;0.82;;;12.40;64.90;;;;;;5053521;28;20029;-34
2021/05/24 03:19:52;;;;;;;4.25;1.75;;;12.50;64.60;;;;;;5054026;28;20096;-36
2021/05/24 03:22:17;;;;;;;3.00;0.95;;;12.50;64.60;;;;;;5053470;28;20035;-35
2021/05/24 03:24:43;;;;;;;1.30;0.68;;;12.40;64.90;;;;;;5053632;28;20472;-35
2021/05/24 03:27:09;;;;;;;1.23;1.13;;;12.40;65.10;;;;;;5053462;28;20028;-35
2021/05/24 03:29:34;;;;;;;1.77;1.08;;;12.30;65.50;;;;;;5053749;28;20032;-35
2021/05/24 03:32:00;;;;;;;2.60;0.77;;;12.40;65.10;;;;;;5053402;28;20083;-35
2021/05/24 03:34:25;;;;;;;2.05;0.90;;;12.30;65.40;;;;;;5053420;28;20515;-35
2021/05/24 03:36:51;;;;;;;1.60;0.63;;;12.40;65.00;;;;;;5053737;28;20472;-35
2021/05/24 03:39:18;;;;;;;1.48;0.70;;;12.30;65.20;;;;;;5053301;28;20029;-35
2021/05/24 03:41:44;;;;;;;0.82;0.70;;;12.30;65.50;;;;;;5053154;28;20057;-35
2021/05/24 03:44:10;;;;;;;1.85;0.90;;;12.40;65.40;;;;;;5055948;28;20067;-35
2021/05/24 03:46:35;;;;;;;2.50;0.98;;;12.50;64.80;;;;;;5056781;28;20056;-35
2021/05/24 03:49:02;;;;;;;2.85;0.77;;;12.50;64.60;;;;;;5057228;28;20021;-35
2021/05/24 03:51:28;;;;;;;5.25;2.38;;;12.50;64.60;;;;;;5057003;28;20496;-35
2021/05/24 03:53:54;;;;;;;1.38;0.75;;;12.60;64.40;;;;;;5056989;28;20024;-35
2021/05/24 03:56:20;;;;;;;1.85;0.57;;;12.60;64.40;;;;;;5057227;28;20432;-35
2021/05/24 03:58:46;;;;;;;2.20;0.60;;;12.70;64.50;;;;;;5056792;28;20017;-35
2021/05/24 04:01:12;;;;;;;4.82;1.05;;;12.80;63.70;;;;;;5055617;28;20021;-34
2021/05/24 04:03:38;;;;;;;5.85;1.23;;;12.80;63.30;;;;;;5057082;28;20021;-35
2021/05/24 04:06:06;;;;;;;4.13;1.52;;;12.80;63.40;;;;;;5057023;28;20146;-34
2021/05/24 04:08:43;;;;;;;0.80;0.73;;;12.90;63.30;;;;;;5057094;28;20481;-34
2021/05/24 04:11:10;;;;;;;2.03;0.75;;;12.80;63.40;;;;;;5055628;28;20021;-37
2021/05/24 04:13:36;;;;;;;2.30;0.50;;;12.80;63.60;;;;;;5056651;28;20082;-42
2021/05/24 04:16:02;;;;;;;0.82;0.63;;;12.80;63.60;;;;;;5056544;28;20025;-35
2021/05/24 04:18:31;;;;;;;1.25;0.57;;;12.90;63.30;;;;;;5056725;28;20025;-34
2021/05/24 04:20:57;;;;;;;3.17;0.68;;;12.90;62.70;;;;;;5056335;28;20527;-35
2021/05/24 04:23:23;;;;;;;1.33;0.93;;;12.90;62.80;;;;;;5056554;28;20491;-35
2021/05/24 04:25:49;;;;;;;5.32;1.08;;;12.90;63.00;;;;;;5056569;28;20104;-40
2021/05/24 04:28:14;;;;;;;1.77;0.75;;;13.00;62.80;;;;;;5056584;28;20488;-34
2021/05/24 04:30:41;;;;;;;1.35;0.85;;;13.10;62.50;;;;;;5056291;28;20027;-34
2021/05/24 04:33:07;;;;;;;1.20;0.70;;;13.00;62.70;;;;;;5056081;28;20104;-36
2021/05/24 04:35:34;;;;;;;2.72;0.68;;;13.00;62.90;;;;;;5056407;28;20056;-36
2021/05/24 04:37:59;;;;;;;0.77;0.77;;;13.10;62.00;;;;;;5056374;28;20496;-34
2021/05/24 04:40:25;;;;;;;3.85;0.63;;;13.20;61.50;;;;;;5056300;28;20024;-34
2021/05/24 04:42:51;;;;;;;1.38;0.57;;;13.20;61.60;;;;;;5056306;28;20139;-34
2021/05/24 04:45:16;;;;;;;1.02;0.60;;;13.20;61.60;;;;;;5056590;28;20048;-35
2021/05/24 04:47:42;;;;;;;2.60;0.70;;;13.30;61.50;;;;;;5056429;28;20044;-34
2021/05/24 04:50:09;;;;;;;2.58;0.70;;;13.30;61.30;;;;;;5056178;28;20468;-35
2021/05/24 04:52:35;;;;;;;2.70;1.05;;;13.30;61.50;;;;;;5054530;28;20057;-34
2021/05/24 04:55:03;;;;;;;5.07;0.90;;;13.20;61.90;;;;;;5055077;28;20116;-34
2021/05/24 04:57:29;;;;;;;2.55;0.85;;;13.20;62.10;;;;;;5055658;28;20052;-34
2021/05/24 04:59:55;;;;;;;2.45;0.77;;;13.30;61.60;;;;;;5054500;28;20025;-34
2021/05/24 05:02:21;;;;;;;1.52;0.77;;;13.30;61.70;;;;;;5055713;28;20104;-34
2021/05/24 05:04:46;;;;;;;2.05;0.75;;;13.30;61.30;;;;;;5056009;28;20522;-34
2021/05/24 05:07:12;;;;;;;2.70;0.50;;;13.30;60.80;;;;;;5055554;28;20083;-36
2021/05/24 05:09:38;;;;;;;1.23;0.80;;;13.30;61.20;;;;;;5055595;28;20025;-36
2021/05/24 05:12:04;;;;;;;4.00;1.20;;;13.50;60.40;;;;;;5054261;28;20068;-35
2021/05/24 05:14:30;;;;;;;3.30;1.38;;;13.70;59.80;;;;;;5054280;28;20033;-35
2021/05/24 05:16:55;;;;;;;3.05;0.70;;;13.80;59.70;;;;;;5054326;28;20052;-35
2021/05/24 05:19:21;;;;;;;1.95;0.73;;;14.00;58.60;;;;;;5055819;28;20032;-35
2021/05/24 05:21:48;;;;;;;1.67;0.77;;;14.10;58.90;;;;;;5055885;28;20036;-34
2021/05/24 05:24:13;;;;;;;4.63;1.42;;;14.10;58.70;;;;;;5054235;28;20536;-36
2021/05/24 05:26:39;;;;;;;2.47;1.08;;;14.10;58.90;;;;;;5054094;28;20159;-34
2021/05/24 05:29:05;;;;;;;0.93;0.70;;;14.30;58.50;;;;;;5055883;28;20477;-34
2021/05/24 05:31:31;;;;;;;1.80;0.65;;;14.50;57.60;;;;;;5055866;28;20368;-34
2021/05/24 05:33:57;;;;;;;1.85;1.15;;;14.50;56.80;;;;;;5055800;28;20496;-35
2021/05/24 05:36:24;;;;;;;3.35;0.82;;;14.50;57.40;;;;;;5055797;28;20412;-36
2021/05/24 05:38:50;;;;;;;1.70;0.77;;;14.30;57.80;;;;;;5055221;28;20507;-35
2021/05/24 05:41:16;;;;;;;4.25;0.80;;;14.10;58.50;;;;;;5055241;28;20017;-34
2021/05/24 05:43:41;;;;;;;3.08;0.68;;;14.40;57.00;;;;;;5055277;28;20029;-35
2021/05/24 05:46:07;;;;;;;5.63;1.65;;;14.50;56.70;;;;;;5055285;28;20385;-35
2021/05/24 05:48:33;;;;;;;3.10;0.85;;;14.70;56.20;;;;;;5054987;28;20023;-34
2021/05/24 05:50:58;;;;;;;3.50;0.57;;;14.80;55.90;;;;;;5054775;28;20017;-34
2021/05/24 05:53:24;;;;;;;3.63;0.77;;;14.80;55.60;;;;;;5053516;28;20029;-35
2021/05/24 05:55:52;;;;;;;3.25;0.75;;;14.80;55.80;;;;;;5055546;28;20033;-34
2021/05/24 05:58:19;;;;;;;0.68;0.50;;;14.80;55.70;;;;;;5054685;28;20037;-35
2021/05/24 06:00:44;;;;;;;1.00;0.98;;;14.90;54.90;;;;;;5055360;28;20064;-41
2021/05/24 06:03:11;;;;;;;1.20;0.70;;;14.80;55.00;;;;;;5055019;28;20551;-36
2021/05/24 06:05:37;;;;;;;2.60;0.90;;;14.90;55.10;;;;;;5054687;28;20032;-35
2021/05/24 06:08:03;;;;;;;1.10;0.55;;;14.90;55.20;;;;;;5054511;28;20021;-35
2021/05/24 06:10:30;;;;;;;2.28;0.70;;;14.90;55.10;;;;;;5054446;28;20029;-35
2021/05/24 06:12:56;;;;;;;3.22;2.03;;;15.10;54.50;;;;;;5054231;28;20082;-35
2021/05/24 06:15:22;;;;;;;5.57;0.82;;;15.10;54.80;;;;;;5054190;28;20029;-35
2021/05/24 06:17:48;;;;;;;1.55;0.50;;;15.20;53.10;;;;;;5054994;28;20477;-34
2021/05/24 06:20:14;;;;;;;1.90;0.68;;;15.20;52.40;;;;;;5053942;28;20465;-35
2021/05/24 06:22:39;;;;;;;0.80;0.45;;;15.30;52.80;;;;;;5054006;28;20389;-35
2021/05/24 06:25:07;;;;;;;2.75;0.77;;;15.30;52.60;;;;;;5052847;28;20363;-34
2021/05/24 06:27:33;;;;;;;8.05;1.30;;;15.30;52.20;;;;;;5053577;28;20049;-36
2021/05/24 06:29:59;;;;;;;0.30;0.30;;;15.30;51.70;;;;;;5053894;28;20025;-35
2021/05/24 06:32:24;;;;;;;1.40;0.73;;;15.40;51.40;;;;;;5053750;28;20029;-36
2021/05/24 06:34:50;;;;;;;3.17;1.05;;;15.60;51.50;;;;;;5053588;28;20366;-37
2021/05/24 06:37:16;;;;;;;1.33;0.50;;;15.80;50.70;;;;;;5053563;28;20025;-36
2021/05/24 06:39:42;;;;;;;2.33;0.57;;;15.80;50.30;;;;;;5053580;28;20443;-36
2021/05/24 06:42:08;;;;;;;0.68;0.68;;;15.80;50.50;;;;;;5053609;28;20040;-35
2021/05/24 06:44:34;;;;;;;3.40;1.40;;;15.90;49.20;;;;;;5053301;28;20056;-36
2021/05/24 06:46:59;;;;;;;3.08;0.52;;;15.80;49.80;;;;;;5054042;28;20071;-35
2021/05/24 06:49:25;;;;;;;1.40;0.60;;;15.80;49.00;;;;;;5053404;28;20112;-35
2021/05/24 06:51:51;;;;;;;3.70;1.10;;;15.90;49.40;;;;;;5055861;28;20045;-35
2021/05/24 06:54:17;;;;;;;0.95;0.60;;;16.00;49.50;;;;;;5053361;28;20041;-34
2021/05/24 06:56:42;;;;;;;0.38;0.38;;;16.00;49.60;;;;;;5053492;28;20075;-35
2021/05/24 06:59:08;;;;;;;1.52;0.60;;;15.90;49.30;;;;;;5053448;28;20029;-35
2021/05/24 07:01:35;;;;;;;3.10;0.85;;;16.20;49.30;;;;;;5053485;28;20025;-35
2021/05/24 07:04:00;;;;;;;3.15;0.60;;;16.20;49.40;;;;;;5053114;28;20048;-35
2021/05/24 07:06:26;;;;;;;0.98;0.63;;;16.30;49.00;;;;;;5053006;28;20029;-34
2021/05/24 07:08:51;;;;;;;1.10;0.70;;;16.30;48.70;;;;;;5053563;28;20025;-35
2021/05/24 07:11:17;;;;;;;2.22;0.52;;;16.40;49.10;;;;;;5051732;28;20052;-34
2021/05/24 07:13:43;;;;;;;9.30;2.30;;;16.40;48.70;;;;;;5053013;28;20032;-35
2021/05/24 07:16:08;;;;;;;8.55;0.80;;;16.40;48.40;;;;;;5053228;28;20025;-34
2021/05/24 07:18:34;;;;;;;3.05;0.75;;;16.30;49.00;;;;;;5052811;28;20025;-35
2021/05/24 07:21:00;;;;;;;1.88;0.90;;;16.60;48.50;;;;;;5053645;28;20091;-37
2021/05/24 07:23:25;;;;;;;2.28;0.50;;;16.80;48.70;;;;;;5052881;28;20075;-35
2021/05/24 07:25:52;;;;;;;1.40;0.60;;;16.90;48.00;;;;;;5053234;28;20025;-36
2021/05/24 07:28:18;;;;;;;1.83;0.80;;;16.80;48.10;;;;;;5053277;28;20034;-36
2021/05/24 07:30:44;;;;;;;3.20;0.52;;;17.50;46.60;;;;;;5052963;28;20377;-35
2021/05/24 07:33:10;;;;;;;3.42;0.52;;;17.60;46.60;;;;;;5053243;28;20033;-35
2021/05/24 07:35:35;;;;;;;2.47;0.90;;;17.50;46.70;;;;;;5052832;28;20381;-36
2021/05/24 07:38:01;;;;;;;3.45;0.70;;;17.80;46.50;;;;;;5051462;28;20485;-36
2021/05/24 07:40:27;;;;;;;3.97;0.85;;;18.30;45.60;;;;;;5051788;28;20463;-36
2021/05/24 07:42:53;;;;;;;1.05;0.80;;;17.90;45.80;;;;;;5053025;28;20036;-36
2021/05/24 07:45:18;;;;;;;1.73;0.73;;;18.40;44.80;;;;;;5052732;28;20021;-35
2021/05/24 07:47:44;;;;;;;3.33;1.08;;;18.00;45.30;;;;;;5052739;28;20025;-36
2021/05/24 07:50:10;;;;;;;1.95;0.52;;;18.40;44.40;;;;;;5053231;28;20017;-36
2021/05/24 07:52:36;;;;;;;1.55;1.00;;;18.80;43.60;;;;;;5052918;28;20394;-36
2021/05/24 07:55:11;;;;;;;1.88;1.00;;;18.10;45.20;;;;;;5051646;28;20108;-36
2021/05/24 07:57:38;;;;;;;1.17;0.47;;;18.90;44.20;;;;;;5051864;28;20036;-36
2021/05/24 08:00:07;;;;;;;0.98;0.60;;;18.70;43.00;;;;;;5053341;28;20079;-36
2021/05/24 08:02:33;;;;;;;3.90;1.88;;;18.80;44.00;;;;;;5052453;28;20032;-35
2021/05/24 08:04:58;;;;;;;1.50;0.80;;;18.90;43.10;;;;;;5052345;28;20029;-36
2021/05/24 08:07:24;;;;;;;2.97;0.85;;;18.80;43.50;;;;;;5052433;28;20021;-36
2021/05/24 08:09:51;;;;;;;1.73;1.05;;;19.00;43.20;;;;;;5052219;28;20029;-35
2021/05/24 08:12:17;;;;;;;2.72;0.80;;;19.20;42.90;;;;;;5052653;28;20515;-37
2021/05/24 08:14:43;;;;;;;3.78;1.73;;;18.90;43.20;;;;;;5052761;28;20465;-37
2021/05/24 08:17:09;;;;;;;4.07;1.05;;;18.80;43.80;;;;;;5052626;28;20056;-35
2021/05/24 08:19:35;;;;;;;3.10;0.75;;;19.00;44.00;;;;;;5052122;28;20489;-36
2021/05/24 08:22:01;;;;;;;2.88;1.10;;;19.30;42.90;;;;;;5052504;28;20025;-36
2021/05/24 08:24:26;;;;;;;6.85;0.75;;;19.30;43.10;;;;;;5052387;28;20028;-36
2021/05/24 08:26:52;;;;;;;4.68;1.30;;;18.80;43.30;;;;;;5052278;28;20080;-36
2021/05/24 08:29:18;;;;;;;5.30;1.08;;;19.70;42.10;;;;;;5052145;28;20021;-36
2021/05/24 08:31:43;;;;;;;4.32;0.90;;;19.50;43.00;;;;;;5055729;28;20055;-35
2021/05/24 08:34:09;;;;;;;3.72;0.88;;;19.40;42.50;;;;;;5055761;28;20027;-35
2021/05/24 08:36:36;;;;;;;2.45;0.93;;;18.50;43.70;;;;;;5055716;28;20381;-36
2021/05/24 08:39:05;;;;;;;6.50;1.02;;;18.70;44.50;;;;;;5055788;28;20075;-35
2021/05/24 08:41:33;;;;;;;1.45;0.50;;;18.60;44.50;;;;;;5055761;28;20385;-35
2021/05/24 08:43:58;;;;;;;4.63;0.80;;;18.10;44.60;;;;;;5056002;28;20028;-35
2021/05/24 08:46:25;;;;;;;4.25;1.10;;;17.70;45.70;;;;;;5056096;28;20432;-37
2021/05/24 08:48:51;;;;;;;3.15;0.68;;;17.50;46.70;;;;;;5056094;28;20021;-35
2021/05/24 08:51:17;;;;;;;4.75;0.95;;;17.50;46.30;;;;;;5055275;28;20057;-36
2021/05/24 08:53:42;;;;;;;2.72;0.68;;;17.50;46.90;;;;;;5055811;28;20540;-35
2021/05/24 08:56:09;;;;;;;3.67;0.70;;;17.30;46.70;;;;;;5055141;28;20029;-36
2021/05/24 08:58:35;;;;;;;3.72;0.90;;;17.40;46.40;;;;;;5055520;28;20029;-36
2021/05/24 09:01:02;;;;;;;4.47;0.65;;;17.30;46.80;;;;;;5055646;28;20037;-36
2021/05/24 09:03:32;;;;;;;2.58;0.68;;;17.20;46.90;;;;;;5055265;28;20033;-35
2021/05/24 09:06:00;;;;;;;5.13;1.00;;;17.20;46.60;;;;;;5055632;28;20036;-35
2021/05/24 09:08:41;;;;;;;2.33;1.00;;;17.20;46.80;;;;;;5053776;28;20113;-36
2021/05/24 09:11:32;;;;;;;1.48;0.82;;;17.30;46.90;;;;;;5055402;28;20353;-35
2021/05/24 09:14:00;;;;;;;5.60;1.10;;;17.30;47.30;;;;;;5054533;28;20033;-36
2021/05/24 09:16:27;;;;;;;0.50;0.50;;;17.20;47.20;;;;;;5055538;28;20040;-36
2021/05/24 09:19:14;;;;;;;5.25;1.00;;;17.20;46.50;;;;;;5053828;28;20052;-39
2021/05/24 09:21:47;;;;;;;3.17;0.93;;;17.20;47.10;;;;;;5054696;28;20046;-36
2021/05/24 09:24:23;;;;;;;1.45;0.70;;;17.20;47.30;;;;;;5055171;28;20020;-36
2021/05/24 09:26:50;;;;;;;2.45;1.33;;;17.10;46.50;;;;;;5055395;28;20021;-36
2021/05/24 09:29:22;;;;;;;2.20;0.70;;;17.20;47.10;;;;;;5054896;28;20096;-35
2021/05/24 09:32:07;;;;;;;2.65;0.88;;;17.40;46.80;;;;;;5054799;28;20037;-35
2021/05/24 09:34:33;;;;;;;4.18;0.80;;;17.30;46.30;;;;;;5054946;28;20032;-37
2021/05/24 09:36:59;;;;;;;2.05;1.00;;;17.10;46.60;;;;;;5054734;28;20028;-35
2021/05/24 09:39:31;;;;;;;4.80;1.92;;;17.20;46.20;;;;;;5054479;28;20021;-35
2021/05/24 09:42:00;;;;;;;3.53;1.10;;;17.30;46.60;;;;;;5054204;28;20033;-36
2021/05/24 09:44:30;;;;;;;1.67;0.95;;;17.30;46.10;;;;;;5054746;28;20078;-35
2021/05/24 09:46:56;;;;;;;1.95;0.95;;;17.40;46.70;;;;;;5054688;28;20028;-35
2021/05/24 09:49:30;;;;;;;2.08;1.05;;;17.40;46.70;;;;;;5055016;28;20062;-35
2021/05/24 09:51:59;;;;;;;3.22;0.80;;;17.40;46.50;;;;;;5053064;28;20084;-36
2021/05/24 09:54:34;;;;;;;6.18;1.45;;;17.40;46.30;;;;;;5053626;28;20033;-37
2021/05/24 09:57:05;;;;;;;6.50;1.10;;;17.40;46.50;;;;;;5054367;28;20115;-36
2021/05/24 09:59:33;;;;;;;4.75;1.05;;;17.30;46.90;;;;;;5054738;28;20025;-35
2021/05/24 10:02:01;;;;;;;4.13;1.58;;;17.60;46.50;;;;;;5054135;28;20029;-35
2021/05/24 10:04:32;;;;;;;3.45;1.25;;;18.20;45.50;;;;;;5054067;28;20062;-36
2021/05/24 10:07:01;;;;;;;1.85;1.10;;;18.60;44.20;;;;;;5053724;28;20116;-36
2021/05/24 10:09:27;;;;;;;2.30;0.98;;;18.70;44.40;;;;;;5054090;28;20029;-35
2021/05/24 10:11:53;;;;;;;3.58;1.00;;;19.10;43.10;;;;;;5052968;28;20389;-35
2021/05/24 10:14:22;;;;;;;4.78;0.50;;;19.40;43.40;;;;;;5054299;28;20025;-38
2021/05/24 10:16:49;;;;;;;2.45;1.08;;;18.80;44.10;;;;;;5054287;28;20033;-36
2021/05/24 10:19:17;;;;;;;0.52;0.52;;;19.10;43.70;;;;;;5053911;28;20033;-35
2021/05/24 10:21:47;;;;;;;3.90;1.00;;;18.20;44.80;;;;;;5054094;28;20025;-35
2021/05/24 10:24:14;;;;;;;2.28;0.77;;;18.20;46.00;;;;;;5054065;28;20031;-36
2021/05/24 10:26:42;;;;;;;7.47;1.10;;;17.90;45.40;;;;;;5053911;28;20024;-36
2021/05/24 10:29:08;;;;;;;4.25;1.60;;;17.50;46.40;;;;;;5053826;28;20075;-36
2021/05/24 10:31:35;;;;;;;3.85;1.00;;;17.50;46.00;;;;;;5054338;28;20107;-36
2021/05/24 10:34:21;;;;;;;3.35;1.27;;;17.00;48.90;;;;;;5053942;28;20070;-36
2021/05/24 10:37:04;;;;;;;2.35;1.05;;;16.80;52.30;;;;;;5054101;28;20017;-36
2021/05/24 10:39:44;;;;;;;1.27;0.75;;;16.50;52.80;;;;;;5052953;28;20028;-34
2021/05/24 10:42:12;;;;;;;4.38;1.08;;;16.20;54.40;;;;;;5051913;28;20033;-35
2021/05/24 10:44:40;;;;;;;4.93;1.17;;;15.90;56.10;;;;;;5052733;28;20436;-35
2021/05/24 10:47:23;;;;;;;5.75;1.42;;;15.80;59.10;;;;;;5053613;28;20048;-38
2021/05/24 10:50:07;;;;;;;3.20;0.98;;;15.80;57.80;;;;;;5053356;28;20078;-35
2021/05/24 10:52:41;;;;;;;0.80;0.52;;;16.00;57.40;;;;;;5052791;28;20119;-36
2021/05/24 10:55:25;;;;;;;3.65;0.95;;;16.00;57.50;;;;;;5053458;28;20044;-35
2021/05/24 10:58:03;;;;;;;5.25;2.03;;;16.00;55.30;;;;;;5053726;28;20032;-36
2021/05/24 11:00:48;;;;;;;5.80;1.35;;;15.90;57.70;;;;;;5052122;28;20036;-36
2021/05/24 11:03:14;;;;;;;3.20;1.48;;;16.10;59.20;;;;;;5053405;28;20358;-35
2021/05/24 11:05:40;;;;;;;7.10;1.33;;;16.00;57.00;;;;;;5053293;28;20021;-35
2021/05/24 11:08:09;;;;;;;1.15;0.82;;;16.10;57.50;;;;;;5053676;28;20021;-36
2021/05/24 11:10:45;;;;;;;3.08;1.40;;;16.10;59.40;;;;;;5053363;28;20025;-37
2021/05/24 11:13:11;;;;;;;2.35;0.70;;;16.10;59.20;;;;;;5053369;28;20025;-36
2021/05/24 11:15:41;;;;;;;2.30;0.70;;;15.90;57.90;;;;;;5053241;28;20503;-36
2021/05/24 11:18:07;;;;;;;4.15;1.20;;;15.90;59.60;;;;;;5053192;28;20389;-36
2021/05/24 11:20:48;;;;;;;4.20;1.65;;;16.20;59.50;;;;;;5053288;28;20035;-35
2021/05/24 11:23:31;;;;;;;3.22;0.52;;;16.10;61.00;;;;;;5053310;28;20354;-35
2021/05/24 11:26:16;;;;;;;0.80;0.80;;;16.00;57.50;;;;;;5053061;28;20547;-35
2021/05/24 11:28:59;;;;;;;2.13;0.98;;;15.80;57.10;;;;;;5053357;28;20389;-35
2021/05/24 11:31:31;;;;;;;1.05;0.75;;;15.90;58.30;;;;;;5052152;28;20017;-35
2021/05/24 11:33:58;;;;;;;1.77;0.70;;;15.80;58.20;;;;;;5053731;28;20033;-36
2021/05/24 11:36:27;;;;;;;2.00;1.08;;;16.00;57.90;;;;;;5053173;28;20017;-35
2021/05/24 11:39:04;;;;;;;3.88;1.20;;;16.00;56.70;;;;;;5053038;28;20053;-37
2021/05/24 11:41:31;;;;;;;2.45;0.60;;;15.90;57.00;;;;;;5052964;28;20377;-36
2021/05/24 11:44:03;;;;;;;1.77;1.08;;;15.80;56.60;;;;;;5052802;28;20025;-36
2021/05/24 11:46:49;;;;;;;3.40;0.95;;;15.80;57.60;;;;;;5053101;28;20036;-37
2021/05/24 11:49:17;;;;;;;1.45;0.70;;;15.90;56.70;;;;;;5054131;28;20055;-36
2021/05/24 11:51:44;;;;;;;1.77;0.93;;;15.90;56.70;;;;;;5052667;28;20052;-37
2021/05/24 11:54:13;;;;;;;1.80;1.35;;;15.80;58.40;;;;;;5052744;28;20407;-37
2021/05/24 11:56:44;;;;;;;3.22;0.90;;;15.70;56.90;;;;;;5052755;28;20087;-36
2021/05/24 11:59:12;;;;;;;2.75;1.13;;;15.70;58.60;;;;;;5052882;28;20036;-36
2021/05/24 12:01:39;;;;;;;1.70;0.85;;;15.50;59.30;;;;;;5052761;28;20033;-36
2021/05/24 12:04:13;;;;;;;3.50;0.70;;;15.60;58.80;;;;;;5053830;28;20025;-36
2021/05/24 12:06:44;;;;;;;3.92;1.00;;;15.60;59.10;;;;;;5056586;28;20428;-36
2021/05/24 12:09:10;;;;;;;;;;;15.60;60.40;;;;;;5057194;28;20100;-37
2021/05/24 12:11:51;;;;;;;4.18;1.15;;;15.70;61.20;;;;;;5057129;28;20341;-37
2021/05/24 12:14:17;;;;;;;4.13;1.25;;;15.70;62.00;;;;;;5056745;28;20044;-37
2021/05/24 12:16:42;;;;;;;3.10;1.80;;;15.40;64.60;;;;;;5056528;28;20025;-38
2021/05/24 12:19:08;;;;;;;1.48;0.95;;;15.40;63.70;;;;;;5056800;28;20100;-36
2021/05/24 12:21:46;;;;;;;2.00;0.70;;;15.20;64.90;;;;;;5058636;28;20021;-34
2021/05/24 12:24:13;;;;;;;3.75;0.90;;;15.20;66.50;;;;;;5056556;28;20028;-36
2021/05/24 12:26:49;;;;;;;3.33;0.88;;;15.30;68.90;;;;;;5056226;28;20048;-37
2021/05/24 12:29:21;;;;;;;3.63;1.02;;;15.30;67.30;;;;;;5056517;28;20028;-37
2021/05/24 12:31:48;;;;;;;3.35;1.05;;;15.10;68.50;;;;;;5056232;28;20029;-38
2021/05/24 12:34:15;;;;;;;3.50;1.20;;;15.00;69.70;;;;;;5056788;28;20423;-37
2021/05/24 12:36:53;;;;;;;3.63;1.27;;;14.80;70.30;;;;;;5056172;28;20029;-37
2021/05/24 12:39:20;;;;;;;3.47;1.08;;;14.50;73.00;;;;;;5055502;28;20025;-36
2021/05/24 12:41:47;;;;;;;1.65;1.10;;;14.20;75.20;;;;;;5055007;28;20017;-37
2021/05/24 12:44:16;;;;;;;7.55;1.35;;;14.20;75.50;;;;;;5054836;28;20496;-37
2021/05/24 12:46:42;;;;;;;2.30;1.00;;;14.10;76.70;;;;;;5056085;28;20024;-37
2021/05/24 12:49:08;;;;;;;1.35;1.25;;;14.00;76.40;;;;;;5056317;28;20025;-36
2021/05/24 12:51:34;;;;;;;4.35;1.20;;;13.80;78.70;;;;;;5055938;28;20120;-37